createdAt,value
2019-03-21T00:00:19.847Z,19.60
2019-03-21T00:02:45.629Z,24.67
2019-03-21T00:05:11.721Z,19.00
2019-03-21T00:07:37.490Z,26.33
2019-03-21T00:10:15.773Z,21.50
2019-03-21T00:12:41.653Z,23.47
2019-03-21T00:15:14.004Z,22.60
2019-03-21T00:17:42.796Z,22.73
2019-03-21T00:20:14.572Z,21.23
2019-03-21T00:22:40.434Z,28.13
2019-03-21T00:25:09.940Z,19.90
2019-03-21T00:27:35.965Z,20.57
2019-03-21T00:30:05.795Z,23.03
2019-03-21T00:32:31.984Z,22.27
2019-03-21T00:34:58.325Z,25.10
2019-03-21T00:37:24.258Z,23.27
2019-03-21T00:39:50.211Z,27.97
2019-03-21T00:42:16.385Z,28.03
2019-03-21T00:44:42.411Z,23.37
2019-03-21T00:47:08.453Z,19.83
2019-03-21T00:49:34.279Z,21.60
2019-03-21T00:52:00.302Z,22.10
2019-03-21T00:54:26.121Z,22.40
2019-03-21T00:56:52.019Z,23.20
2019-03-21T00:59:18.733Z,27.53
2019-03-21T01:01:44.811Z,22.23
2019-03-21T01:04:10.629Z,22.03
2019-03-21T01:06:36.645Z,21.97
2019-03-21T01:09:06.511Z,24.90
2019-03-21T01:11:32.303Z,22.83
2019-03-21T01:13:58.406Z,20.20
2019-03-21T01:16:24.229Z,20.20
2019-03-21T01:18:50.355Z,21.60
2019-03-21T01:21:16.405Z,19.23
2019-03-21T01:23:42.681Z,22.43
2019-03-21T01:26:13.242Z,21.23
2019-03-21T01:28:39.368Z,19.00
2019-03-21T01:31:05.379Z,19.63
2019-03-21T01:33:31.439Z,17.53
2019-03-21T01:35:57.277Z,23.30
2019-03-21T01:38:23.349Z,23.53
2019-03-21T01:40:52.419Z,19.40
2019-03-21T01:43:19.209Z,17.13
2019-03-21T01:45:45.186Z,17.10
2019-03-21T01:48:11.338Z,19.93
2019-03-21T01:50:38.766Z,19.13
2019-03-21T01:53:04.689Z,17.70
2019-03-21T01:55:30.784Z,20.57
2019-03-21T01:57:56.571Z,16.00
2019-03-21T02:00:25.999Z,17.83
2019-03-21T02:02:54.472Z,21.33
2019-03-21T02:05:20.310Z,20.50
2019-03-21T02:07:46.289Z,22.20
2019-03-21T02:10:15.374Z,18.83
2019-03-21T02:12:41.194Z,18.10
2019-03-21T02:15:10.915Z,18.87
2019-03-21T02:17:36.910Z,19.17
2019-03-21T02:20:06.641Z,19.90
2019-03-21T02:22:32.817Z,19.97
2019-03-21T02:24:58.832Z,19.83
2019-03-21T02:27:24.944Z,19.70
2019-03-21T02:29:50.715Z,18.67
2019-03-21T02:32:16.751Z,20.23
2019-03-21T02:34:42.642Z,18.83
2019-03-21T02:37:08.683Z,19.13
2019-03-21T02:39:34.914Z,20.63
2019-03-21T02:42:00.949Z,20.77
2019-03-21T02:44:26.986Z,17.87
2019-03-21T02:46:52.871Z,16.90
2019-03-21T02:49:18.925Z,21.37
2019-03-21T02:51:45.154Z,18.90
2019-03-21T02:54:11.119Z,19.60
2019-03-21T02:56:37.073Z,17.27
2019-03-21T02:59:03.439Z,19.80
2019-03-21T03:01:29.837Z,25.43
2019-03-21T03:03:55.918Z,21.90
2019-03-21T03:06:22.154Z,19.10
2019-03-21T03:08:48.121Z,24.73
2019-03-21T03:11:17.963Z,23.77
2019-03-21T03:13:46.937Z,21.77
2019-03-21T03:16:12.756Z,19.03
2019-03-21T03:18:39.544Z,21.90
2019-03-21T03:21:05.337Z,23.57
2019-03-21T03:23:31.323Z,22.67
2019-03-21T03:25:57.668Z,22.37
2019-03-21T03:28:30.295Z,20.57
2019-03-21T03:30:57.301Z,26.03
2019-03-21T03:33:23.612Z,23.37
2019-03-21T03:35:49.808Z,25.87
2019-03-21T03:38:15.813Z,21.73
2019-03-21T03:40:47.497Z,23.27
2019-03-21T03:43:13.765Z,21.27
2019-03-21T03:45:43.551Z,22.47
2019-03-21T03:48:09.642Z,23.60
2019-03-21T03:50:35.604Z,21.47
2019-03-21T03:53:02.325Z,22.53
2019-03-21T03:55:28.575Z,18.80
2019-03-21T03:58:00.819Z,23.13
2019-03-21T04:00:26.966Z,25.47
2019-03-21T04:02:54.707Z,18.60
2019-03-21T04:05:21.059Z,19.93
2019-03-21T04:07:48.065Z,25.57
2019-03-21T04:10:23.013Z,25.67
2019-03-21T04:12:49.259Z,21.70
2019-03-21T04:15:15.437Z,24.80
2019-03-21T04:17:41.436Z,24.80
2019-03-21T04:20:11.198Z,22.23
2019-03-21T04:22:37.183Z,25.87
2019-03-21T04:25:07.033Z,21.20
2019-03-21T04:27:34.063Z,20.43
2019-03-21T04:30:00.422Z,27.37
2019-03-21T04:32:26.695Z,23.87
2019-03-21T04:34:52.568Z,23.67
2019-03-21T04:37:18.675Z,21.87
2019-03-21T04:39:44.745Z,24.53
2019-03-21T04:42:10.618Z,22.10
2019-03-21T04:44:36.590Z,24.50
2019-03-21T04:47:02.918Z,22.27
2019-03-21T04:49:28.836Z,23.27
2019-03-21T04:51:55.124Z,24.97
2019-03-21T04:54:21.123Z,25.07
2019-03-21T04:56:47.062Z,21.33
2019-03-21T04:59:13.101Z,25.63
2019-03-21T05:01:39.133Z,20.53
2019-03-21T05:04:05.459Z,27.73
2019-03-21T05:06:32.915Z,20.97
2019-03-21T05:08:59.134Z,23.17
2019-03-21T05:11:25.000Z,26.53
2019-03-21T05:13:50.791Z,20.27
2019-03-21T05:16:16.792Z,23.47
2019-03-21T05:18:49.578Z,22.17
2019-03-21T05:21:20.798Z,20.63
2019-03-21T05:23:46.795Z,21.40
2019-03-21T05:26:13.189Z,21.13
2019-03-21T05:28:39.190Z,26.10
2019-03-21T05:31:08.913Z,23.57
2019-03-21T05:33:35.044Z,21.97
2019-03-21T05:36:01.068Z,21.97
2019-03-21T05:38:29.979Z,18.80
2019-03-21T05:40:56.076Z,20.57
2019-03-21T05:43:25.782Z,21.47
2019-03-21T05:45:51.814Z,21.77
2019-03-21T05:48:18.021Z,23.57
2019-03-21T05:50:47.204Z,25.23
2019-03-21T05:53:13.449Z,20.93
2019-03-21T05:55:39.814Z,21.20
2019-03-21T05:58:05.890Z,26.63
2019-03-21T06:00:36.910Z,20.43
2019-03-21T06:03:05.024Z,17.00
2019-03-21T06:05:30.887Z,22.30
2019-03-21T06:08:16.007Z,23.93
2019-03-21T06:10:42.352Z,20.70
2019-03-21T06:13:08.283Z,20.13
2019-03-21T06:15:39.389Z,21.33
2019-03-21T06:18:12.181Z,21.97
2019-03-21T06:20:56.519Z,16.90
2019-03-21T06:23:26.287Z,18.73
2019-03-21T06:26:04.909Z,18.70
2019-03-21T06:28:30.923Z,23.93
2019-03-21T06:30:57.007Z,25.63
2019-03-21T06:33:23.160Z,26.03
2019-03-21T06:35:49.238Z,20.60
2019-03-21T06:38:15.410Z,22.77
2019-03-21T06:40:41.528Z,22.33
2019-03-21T06:43:07.352Z,19.47
2019-03-21T06:45:33.154Z,23.23
2019-03-21T06:47:58.991Z,27.53
2019-03-21T06:50:25.023Z,21.90
2019-03-21T06:52:51.097Z,19.83
2019-03-21T06:55:17.249Z,21.33
2019-03-21T06:57:43.245Z,21.13
2019-03-21T07:00:10.335Z,32.63
2019-03-21T07:02:36.269Z,23.67
2019-03-21T07:05:05.015Z,21.20
2019-03-21T07:07:30.861Z,22.43
2019-03-21T07:09:56.806Z,22.80
2019-03-21T07:12:23.129Z,28.53
2019-03-21T07:14:49.430Z,27.33
2019-03-21T07:17:15.457Z,23.83
2019-03-21T07:19:41.519Z,19.20
2019-03-21T07:22:07.594Z,19.83
2019-03-21T07:24:33.461Z,20.43
2019-03-21T07:26:59.568Z,28.63
2019-03-21T07:29:25.676Z,17.27
2019-03-21T07:31:51.481Z,20.40
2019-03-21T07:34:17.324Z,19.63
2019-03-21T07:36:43.355Z,21.20
2019-03-21T07:39:09.421Z,24.90
2019-03-21T07:41:35.656Z,18.00
2019-03-21T07:44:01.643Z,22.17
2019-03-21T07:46:27.570Z,20.03
2019-03-21T07:48:53.797Z,20.03
2019-03-21T07:51:20.101Z,26.00
2019-03-21T07:53:46.057Z,20.53
2019-03-21T07:56:12.325Z,21.73
2019-03-21T07:58:38.293Z,21.50
2019-03-21T08:01:04.836Z,18.20
2019-03-21T08:03:30.819Z,23.93
2019-03-21T08:05:56.604Z,17.33
2019-03-21T08:08:22.716Z,15.10
2019-03-21T08:10:48.721Z,15.97
2019-03-21T08:13:14.920Z,21.73
2019-03-21T08:15:41.019Z,18.77
2019-03-21T08:18:07.309Z,24.83
2019-03-21T08:20:33.353Z,23.90
2019-03-21T08:22:59.407Z,42.07
2019-03-21T08:25:25.509Z,18.43
2019-03-21T08:27:51.892Z,18.07
2019-03-21T08:30:27.333Z,26.43
2019-03-21T08:32:53.357Z,19.87
2019-03-21T08:35:19.427Z,22.33
2019-03-21T08:37:45.417Z,27.47
2019-03-21T08:40:13.170Z,18.90
2019-03-21T08:42:39.579Z,19.00
2019-03-21T08:45:06.084Z,18.20
2019-03-21T08:47:32.425Z,19.83
2019-03-21T08:49:58.426Z,26.40
2019-03-21T08:52:24.387Z,16.77
2019-03-21T08:54:50.199Z,25.20
2019-03-21T08:57:15.982Z,17.52
2019-03-21T08:59:42.155Z,16.27
2019-03-21T09:02:08.129Z,17.45
2019-03-21T09:04:34.075Z,21.23
2019-03-21T09:07:00.054Z,16.52
2019-03-21T09:09:26.324Z,16.95
2019-03-21T09:11:52.353Z,17.07
2019-03-21T09:14:18.425Z,18.07
2019-03-21T09:16:44.587Z,28.80
2019-03-21T09:19:10.612Z,15.55
2019-03-21T09:21:36.866Z,18.95
2019-03-21T09:24:03.297Z,15.35
2019-03-21T09:26:29.205Z,22.85
2019-03-21T09:28:55.156Z,18.37
2019-03-21T09:31:21.480Z,14.47
2019-03-21T09:33:47.829Z,15.05
2019-03-21T09:36:13.890Z,20.55
2019-03-21T09:38:39.754Z,12.82
2019-03-21T09:41:05.891Z,14.55
2019-03-21T09:43:31.933Z,13.40
2019-03-21T09:45:57.845Z,20.82
2019-03-21T09:48:23.903Z,13.48
2019-03-21T09:50:49.957Z,13.85
2019-03-21T09:53:15.839Z,14.75
2019-03-21T09:55:41.702Z,14.90
2019-03-21T09:58:07.737Z,12.58
2019-03-21T10:00:37.155Z,18.48
2019-03-21T10:03:04.489Z,11.28
2019-03-21T10:05:30.600Z,13.28
2019-03-21T10:07:59.426Z,13.80
2019-03-21T10:10:29.973Z,11.38
2019-03-21T10:12:55.938Z,18.62
2019-03-21T10:15:21.761Z,13.03
2019-03-21T10:17:47.811Z,10.53
2019-03-21T10:20:13.949Z,13.13
2019-03-21T10:22:40.171Z,13.15
2019-03-21T10:25:06.191Z,11.08
2019-03-21T10:27:32.406Z,12.85
2019-03-21T10:29:58.399Z,13.13
2019-03-21T10:32:24.544Z,10.95
2019-03-21T10:34:50.662Z,13.35
2019-03-21T10:37:16.575Z,14.50
2019-03-21T10:39:42.615Z,12.23
2019-03-21T10:42:09.130Z,11.65
2019-03-21T10:44:35.169Z,12.63
2019-03-21T10:47:00.959Z,16.10
2019-03-21T10:49:26.894Z,15.10
2019-03-21T10:51:55.240Z,14.25
2019-03-21T10:54:20.799Z,11.55
2019-03-21T10:56:46.839Z,13.45
2019-03-21T10:59:12.680Z,13.13
2019-03-21T11:01:38.491Z,11.83
2019-03-21T11:04:04.568Z,14.10
2019-03-21T11:06:30.570Z,10.55
2019-03-21T11:08:56.496Z,10.60
2019-03-21T11:11:22.299Z,12.43
2019-03-21T11:13:48.476Z,13.22
2019-03-21T11:16:14.638Z,11.57
2019-03-21T11:18:40.897Z,14.95
2019-03-21T11:21:06.859Z,14.85
2019-03-21T11:23:32.880Z,10.15
2019-03-21T11:25:58.893Z,11.85
2019-03-21T11:28:24.662Z,11.78
2019-03-21T11:30:50.743Z,11.22
2019-03-21T11:33:16.853Z,14.20
2019-03-21T11:35:42.984Z,9.85
2019-03-21T11:38:09.045Z,17.10
2019-03-21T11:40:35.338Z,12.43
2019-03-21T11:43:02.854Z,13.72
2019-03-21T11:45:29.203Z,12.65
2019-03-21T11:47:55.496Z,12.63
2019-03-21T11:50:21.705Z,10.32
2019-03-21T11:52:47.829Z,10.08
2019-03-21T11:55:14.237Z,13.53
2019-03-21T11:57:40.543Z,12.25
2019-03-21T12:00:08.913Z,9.40
2019-03-21T12:02:35.240Z,12.70
2019-03-21T12:05:01.641Z,15.20
2019-03-21T12:07:27.557Z,10.35
2019-03-21T12:09:53.684Z,10.32
2019-03-21T12:12:19.771Z,11.93
2019-03-21T12:14:46.193Z,10.40
2019-03-21T12:17:12.973Z,11.75
2019-03-21T12:19:39.128Z,9.18
2019-03-21T12:22:05.233Z,11.73
2019-03-21T12:24:31.424Z,13.90
2019-03-21T12:26:57.488Z,10.23
2019-03-21T12:29:23.490Z,11.03
2019-03-21T12:31:49.367Z,12.18
2019-03-21T12:34:15.557Z,8.88
2019-03-21T12:36:41.636Z,12.58
2019-03-21T12:39:07.972Z,13.43
2019-03-21T12:41:34.315Z,15.25
2019-03-21T12:44:00.516Z,9.50
2019-03-21T12:46:26.547Z,14.40
2019-03-21T12:48:52.635Z,12.68
2019-03-21T12:51:18.839Z,12.00
2019-03-21T12:53:45.109Z,9.68
2019-03-21T12:56:11.543Z,11.45
2019-03-21T12:58:37.696Z,9.70
2019-03-21T13:01:04.042Z,12.35
2019-03-21T13:03:30.455Z,12.05
2019-03-21T13:05:56.622Z,9.15
2019-03-21T13:08:33.302Z,22.22
2019-03-21T13:10:50.488Z,11.90
2019-03-21T13:13:16.538Z,13.63
2019-03-21T13:15:42.490Z,13.83
2019-03-21T13:18:08.616Z,8.80
2019-03-21T13:20:34.810Z,13.73
2019-03-21T13:23:00.884Z,10.13
2019-03-21T13:25:27.240Z,16.27
2019-03-21T13:27:53.455Z,14.03
2019-03-21T13:30:19.928Z,11.23
2019-03-21T13:32:47.078Z,9.53
2019-03-21T13:35:13.446Z,10.83
2019-03-21T13:37:39.511Z,9.40
2019-03-21T13:40:05.851Z,9.40
2019-03-21T13:42:31.947Z,9.20
2019-03-21T13:44:57.949Z,10.20
2019-03-21T13:47:23.998Z,11.40
2019-03-21T13:49:50.328Z,14.37
2019-03-21T13:52:16.245Z,9.87
2019-03-21T13:54:42.398Z,8.07
2019-03-21T13:57:08.504Z,8.43
2019-03-21T13:59:35.191Z,8.03
2019-03-21T14:02:01.274Z,12.70
2019-03-21T14:04:27.700Z,7.47
2019-03-21T14:06:53.856Z,5.73
2019-03-21T14:09:20.455Z,9.13
2019-03-21T14:11:46.668Z,9.63
2019-03-21T14:14:12.783Z,7.67
2019-03-21T14:16:38.754Z,5.13
2019-03-21T14:19:04.874Z,6.90
2019-03-21T14:21:31.127Z,9.37
2019-03-21T14:23:57.298Z,8.50
2019-03-21T14:26:23.557Z,10.73
2019-03-21T14:28:49.540Z,10.47
2019-03-21T14:31:15.594Z,9.30
2019-03-21T14:33:44.581Z,8.50
2019-03-21T14:36:10.896Z,6.33
2019-03-21T14:38:37.467Z,10.33
2019-03-21T14:41:03.346Z,6.50
2019-03-21T14:43:29.442Z,10.23
2019-03-21T14:45:55.606Z,8.50
2019-03-21T14:48:21.991Z,11.33
2019-03-21T14:50:47.862Z,8.57
2019-03-21T14:53:13.956Z,9.17
2019-03-21T14:55:47.346Z,9.97
2019-03-21T14:58:07.744Z,8.53
2019-03-21T15:00:33.785Z,9.10
2019-03-21T15:03:00.050Z,11.57
2019-03-21T15:05:26.154Z,8.37
2019-03-21T15:07:52.013Z,7.80
2019-03-21T15:10:18.624Z,10.93
2019-03-21T15:12:44.623Z,9.73
2019-03-21T15:15:12.548Z,6.53
2019-03-21T15:17:39.063Z,11.53
2019-03-21T15:20:08.266Z,8.83
2019-03-21T15:22:34.452Z,9.20
2019-03-21T15:25:00.500Z,7.17
2019-03-21T15:27:26.510Z,8.50
2019-03-21T15:29:52.747Z,7.70
2019-03-21T15:32:19.381Z,9.67
2019-03-21T15:34:45.330Z,11.37
2019-03-21T15:37:11.630Z,9.57
2019-03-21T15:39:37.955Z,8.40
2019-03-21T15:42:04.338Z,9.70
2019-03-21T15:44:30.609Z,6.50
2019-03-21T15:46:56.625Z,10.07
2019-03-21T15:49:22.571Z,7.87
2019-03-21T15:51:48.570Z,9.20
2019-03-21T15:54:14.694Z,10.07
2019-03-21T15:56:40.564Z,6.83
2019-03-21T15:59:06.689Z,10.43
2019-03-21T16:01:32.780Z,7.60
2019-03-21T16:03:59.103Z,8.67
2019-03-21T16:06:25.132Z,8.60
2019-03-21T16:08:51.224Z,8.07
2019-03-21T16:11:17.040Z,10.03
2019-03-21T16:13:43.148Z,8.93
2019-03-21T16:16:09.330Z,6.37
2019-03-21T16:18:35.395Z,12.47
2019-03-21T16:21:01.406Z,12.17
2019-03-21T16:23:27.220Z,9.20
2019-03-21T16:25:53.347Z,11.50
2019-03-21T16:28:20.300Z,9.90
2019-03-21T16:30:46.709Z,12.57
2019-03-21T16:33:13.002Z,8.53
2019-03-21T16:35:39.449Z,10.17
2019-03-21T16:38:05.252Z,9.53
2019-03-21T16:40:31.426Z,7.50
2019-03-21T16:42:57.664Z,6.27
2019-03-21T16:45:23.976Z,7.43
2019-03-21T16:47:49.994Z,7.87
2019-03-21T16:50:16.185Z,10.40
2019-03-21T16:52:41.954Z,7.13
2019-03-21T16:55:12.454Z,7.37
2019-03-21T16:57:38.600Z,9.53
2019-03-21T17:00:07.762Z,10.53
2019-03-21T17:02:34.016Z,9.50
2019-03-21T17:05:00.551Z,9.80
2019-03-21T17:07:26.814Z,6.63
2019-03-21T17:09:53.095Z,7.77
2019-03-21T17:12:18.935Z,8.17
2019-03-21T17:14:44.986Z,8.10
2019-03-21T17:17:10.857Z,5.57
2019-03-21T17:19:36.877Z,9.70
2019-03-21T17:22:03.291Z,8.57
2019-03-21T17:24:29.917Z,8.87
2019-03-21T17:26:56.110Z,10.13
2019-03-21T17:29:21.928Z,9.73
2019-03-21T17:31:48.041Z,9.07
2019-03-21T17:34:14.390Z,9.97
2019-03-21T17:36:40.356Z,6.70
2019-03-21T17:39:08.102Z,6.27
2019-03-21T17:41:34.162Z,10.20
2019-03-21T17:44:00.060Z,8.20
2019-03-21T17:46:26.140Z,10.83
2019-03-21T17:48:52.105Z,9.70
2019-03-21T17:51:18.212Z,7.90
2019-03-21T17:53:44.286Z,8.40
2019-03-21T17:56:10.383Z,9.17
2019-03-21T17:58:36.411Z,11.23
2019-03-21T18:01:02.637Z,9.23
2019-03-21T18:03:29.160Z,7.47
2019-03-21T18:05:55.430Z,9.37
2019-03-21T18:08:21.590Z,9.07
2019-03-21T18:10:47.990Z,9.47
2019-03-21T18:13:14.010Z,9.10
2019-03-21T18:15:40.090Z,12.87
2019-03-21T18:18:06.357Z,12.10
2019-03-21T18:20:32.402Z,12.47
2019-03-21T18:22:58.972Z,13.10
2019-03-21T18:25:25.096Z,9.10
2019-03-21T18:27:51.354Z,7.83
2019-03-21T18:30:17.602Z,8.83
2019-03-21T18:32:43.864Z,13.60
2019-03-21T18:35:11.353Z,17.77
2019-03-21T18:37:37.478Z,12.53
2019-03-21T18:40:05.108Z,17.63
2019-03-21T18:42:31.183Z,13.80
2019-03-21T18:44:57.493Z,16.57
2019-03-21T18:47:23.698Z,16.00
2019-03-21T18:49:49.738Z,16.27
2019-03-21T18:52:15.675Z,13.07
2019-03-21T18:54:41.793Z,19.03
2019-03-21T18:57:08.150Z,14.27
2019-03-21T18:59:34.187Z,18.63
2019-03-21T19:02:00.304Z,18.27
2019-03-21T19:04:26.314Z,14.10
2019-03-21T19:06:52.458Z,14.70
2019-03-21T19:09:18.592Z,17.93
2019-03-21T19:11:44.638Z,15.23
2019-03-21T19:14:10.796Z,12.37
2019-03-21T19:16:36.981Z,17.23
2019-03-21T19:19:03.425Z,14.03
2019-03-21T19:21:29.769Z,14.30
2019-03-21T19:23:55.927Z,19.10
2019-03-21T19:26:21.888Z,19.03
2019-03-21T19:28:47.910Z,13.30
2019-03-21T19:31:13.717Z,10.93
2019-03-21T19:33:40.035Z,15.03
2019-03-21T19:36:06.169Z,18.63
2019-03-21T19:38:32.227Z,20.87
2019-03-21T19:40:58.292Z,16.43
2019-03-21T19:43:24.336Z,17.53
2019-03-21T19:45:50.410Z,17.03
2019-03-21T19:48:16.374Z,20.33
2019-03-21T19:50:42.456Z,18.23
2019-03-21T19:53:08.660Z,14.77
2019-03-21T19:55:34.943Z,19.43
2019-03-21T19:58:01.372Z,16.23
2019-03-21T20:00:27.409Z,17.03
2019-03-21T20:02:53.613Z,15.27
2019-03-21T20:05:19.793Z,19.50
2019-03-21T20:07:46.180Z,16.53
2019-03-21T20:10:14.972Z,17.87
2019-03-21T20:12:41.129Z,18.53
2019-03-21T20:15:12.778Z,22.57
2019-03-21T20:17:38.629Z,20.20
2019-03-21T20:20:08.217Z,24.40
2019-03-21T20:22:34.721Z,22.33
2019-03-21T20:25:00.944Z,23.60
2019-03-21T20:27:27.387Z,26.50
2019-03-21T20:29:53.630Z,30.53
2019-03-21T20:32:20.736Z,19.10
2019-03-21T20:34:47.373Z,20.90
2019-03-21T20:37:13.442Z,29.90
2019-03-21T20:39:39.457Z,21.47
2019-03-21T20:42:05.952Z,19.80
2019-03-21T20:44:31.892Z,22.57
2019-03-21T20:46:57.981Z,23.10
2019-03-21T20:49:24.363Z,26.63
2019-03-21T20:51:50.403Z,26.23
2019-03-21T20:54:16.566Z,32.07
2019-03-21T20:56:42.882Z,26.67
2019-03-21T20:59:08.960Z,30.10
2019-03-21T21:01:35.159Z,31.90
2019-03-21T21:04:01.125Z,30.33
2019-03-21T21:06:27.599Z,33.20
2019-03-21T21:08:53.601Z,26.67
2019-03-21T21:11:19.651Z,33.37
2019-03-21T21:13:45.677Z,24.80
2019-03-21T21:16:11.827Z,26.17
2019-03-21T21:18:37.880Z,24.83
2019-03-21T21:21:04.285Z,21.47
2019-03-21T21:23:30.374Z,24.87
2019-03-21T21:26:05.008Z,25.13
2019-03-21T21:28:24.091Z,21.93
2019-03-21T21:30:50.530Z,23.20
2019-03-21T21:33:16.550Z,24.40
2019-03-21T21:35:42.737Z,22.57
2019-03-21T21:38:08.803Z,30.83
2019-03-21T21:40:34.999Z,22.27
2019-03-21T21:43:00.883Z,23.53
2019-03-21T21:45:26.945Z,25.57
2019-03-21T21:47:53.099Z,23.73
2019-03-21T21:50:19.437Z,25.03
2019-03-21T21:52:45.374Z,26.70
2019-03-21T21:55:12.607Z,21.30
2019-03-21T21:57:38.597Z,27.87
2019-03-21T22:00:07.638Z,24.60
2019-03-21T22:02:33.767Z,23.30
2019-03-21T22:05:00.543Z,25.10
2019-03-21T22:07:27.042Z,25.40
2019-03-21T22:09:52.935Z,24.87
2019-03-21T22:12:19.297Z,23.93
2019-03-21T22:14:45.312Z,24.90
2019-03-21T22:17:11.340Z,23.83
2019-03-21T22:19:37.483Z,28.33
2019-03-21T22:22:03.477Z,19.83
2019-03-21T22:24:29.401Z,25.80
2019-03-21T22:26:55.741Z,20.67
2019-03-21T22:29:21.960Z,24.00
2019-03-21T22:31:47.763Z,25.20
2019-03-21T22:34:13.817Z,24.70
2019-03-21T22:36:48.889Z,25.07
2019-03-21T22:39:07.989Z,19.50
2019-03-21T22:41:34.141Z,28.43
2019-03-21T22:44:00.234Z,26.80
2019-03-21T22:46:26.365Z,21.00
2019-03-21T22:48:52.423Z,22.50
2019-03-21T22:51:18.618Z,24.70
2019-03-21T22:53:44.513Z,23.33
2019-03-21T22:56:10.599Z,24.33
2019-03-21T22:58:36.695Z,26.33
2019-03-21T23:01:03.742Z,21.80
2019-03-21T23:03:30.066Z,20.30
2019-03-21T23:05:56.171Z,20.53
2019-03-21T23:08:22.227Z,20.07
2019-03-21T23:10:48.658Z,21.00
2019-03-21T23:13:14.571Z,20.73
2019-03-21T23:15:40.734Z,24.30
2019-03-21T23:18:06.721Z,22.67
2019-03-21T23:20:33.079Z,23.27
2019-03-21T23:22:59.366Z,23.50
2019-03-21T23:25:25.284Z,20.40
2019-03-21T23:27:51.415Z,21.87
2019-03-21T23:30:18.392Z,20.37
2019-03-21T23:32:44.650Z,19.30
2019-03-21T23:35:10.870Z,18.07
2019-03-21T23:37:37.152Z,24.40
2019-03-21T23:40:08.788Z,19.63
2019-03-21T23:42:34.981Z,21.20
2019-03-21T23:45:00.763Z,25.60
2019-03-21T23:47:26.821Z,24.07
2019-03-21T23:49:52.635Z,29.87
2019-03-21T23:52:18.708Z,21.50
2019-03-21T23:54:44.868Z,24.93
2019-03-21T23:57:10.955Z,22.73
2019-03-21T23:59:37.023Z,23.37
